createdAt,value
2023-02-09T00:01:26.451Z,95.73
2023-02-09T00:06:31.635Z,93.14
2023-02-09T00:11:55.653Z,95.90
2023-02-09T00:16:59.492Z,87.93
2023-02-09T00:22:06.688Z,85.89
2023-02-09T00:27:10.749Z,82.81
2023-02-09T00:32:14.579Z,84.55
2023-02-09T00:37:19.706Z,86.50
2023-02-09T00:42:23.451Z,87.90
2023-02-09T00:47:28.022Z,88.76
2023-02-09T00:52:33.176Z,85.04
2023-02-09T00:57:37.079Z,85.88
2023-02-09T01:02:41.036Z,85.89
2023-02-09T01:07:46.097Z,86.41
2023-02-09T01:12:52.606Z,88.32
2023-02-09T01:17:56.381Z,84.76
2023-02-09T01:23:03.474Z,83.84
2023-02-09T01:28:07.356Z,85.02
2023-02-09T01:33:11.126Z,83.00
2023-02-09T01:38:16.244Z,84.86
2023-02-09T01:43:20.148Z,84.14
2023-02-09T01:48:29.464Z,85.23
2023-02-09T01:53:35.037Z,83.17
2023-02-09T01:58:40.347Z,83.46
2023-02-09T02:03:44.878Z,84.86
2023-02-09T02:08:56.533Z,84.87
2023-02-09T02:14:00.599Z,85.04
2023-02-09T02:19:32.832Z,87.46
2023-02-09T02:24:57.021Z,89.77
2023-02-09T02:30:17.298Z,90.62
2023-02-09T02:35:33.108Z,92.91
2023-02-09T02:40:48.879Z,92.95
2023-02-09T02:45:58.463Z,94.63
2023-02-09T02:51:07.255Z,93.16
2023-02-09T02:56:16.393Z,94.16
2023-02-09T03:01:24.721Z,97.05
2023-02-09T03:06:32.406Z,99.29
2023-02-09T03:11:40.159Z,99.01
2023-02-09T03:16:47.191Z,100.00
2023-02-09T03:21:56.917Z,100.00
2023-02-09T03:27:05.796Z,100.00
2023-02-09T03:32:10.343Z,100.00
2023-02-09T03:37:15.656Z,100.00
2023-02-09T03:42:19.414Z,100.00
2023-02-09T03:47:23.148Z,100.00
2023-02-09T03:52:28.238Z,100.00
2023-02-09T03:57:32.018Z,100.00
2023-02-09T04:02:35.821Z,100.00
2023-02-09T04:07:41.082Z,100.00
2023-02-09T04:12:44.809Z,100.00
2023-02-09T04:17:50.759Z,100.00
2023-02-09T04:22:55.948Z,100.00
2023-02-09T04:27:59.745Z,100.00
2023-02-09T04:33:03.542Z,100.00
2023-02-09T04:38:08.649Z,100.00
2023-02-09T04:43:12.507Z,100.00
2023-02-09T04:48:17.924Z,100.00
2023-02-09T04:53:23.535Z,100.00
2023-02-09T04:58:45.023Z,100.00
2023-02-09T05:03:48.845Z,100.00
2023-02-09T05:08:53.965Z,100.00
2023-02-09T05:13:57.784Z,100.00
2023-02-09T05:19:01.580Z,100.00
2023-02-09T05:24:07.634Z,100.00
2023-02-09T05:29:11.471Z,100.00
2023-02-09T05:34:15.196Z,100.00
2023-02-09T05:39:20.441Z,100.00
2023-02-09T05:44:24.624Z,100.00
2023-02-09T05:49:28.396Z,100.00
2023-02-09T05:54:34.121Z,100.00
2023-02-09T05:59:37.902Z,100.00
2023-02-09T06:04:41.731Z,100.00
2023-02-09T06:09:46.819Z,100.00
2023-02-09T06:14:50.552Z,100.00
2023-02-09T06:19:54.306Z,100.00
2023-02-09T06:24:59.464Z,100.00
2023-02-09T06:30:03.305Z,100.00
2023-02-09T06:35:07.529Z,100.00
2023-02-09T06:40:13.726Z,100.00
2023-02-09T06:45:18.531Z,100.00
2023-02-09T06:50:22.334Z,100.00
2023-02-09T06:55:27.740Z,100.00
2023-02-09T07:00:32.100Z,100.00
2023-02-09T07:05:35.847Z,100.00
2023-02-09T07:10:42.737Z,100.00
2023-02-09T07:15:46.510Z,100.00
2023-02-09T07:20:55.118Z,100.00
2023-02-09T07:26:04.264Z,100.00
2023-02-09T07:31:10.729Z,100.00
2023-02-09T07:36:16.475Z,100.00
2023-02-09T07:41:25.162Z,100.00
2023-02-09T07:46:28.929Z,100.00
2023-02-09T07:51:34.276Z,100.00
2023-02-09T07:56:39.421Z,100.00
2023-02-09T08:01:43.495Z,100.00
2023-02-09T08:06:54.449Z,100.00
2023-02-09T08:12:04.006Z,100.00
2023-02-09T08:17:21.403Z,100.00
2023-02-09T08:22:29.400Z,100.00
2023-02-09T08:27:34.484Z,100.00
2023-02-09T08:32:38.148Z,100.00
2023-02-09T08:37:42.022Z,100.00
2023-02-09T08:42:47.124Z,100.00
2023-02-09T08:47:51.212Z,100.00
2023-02-09T08:52:58.019Z,100.00
2023-02-09T08:58:03.109Z,100.00
2023-02-09T09:03:06.956Z,100.00
2023-02-09T09:08:10.786Z,100.00
2023-02-09T09:13:15.984Z,100.00
2023-02-09T09:18:20.083Z,100.00
2023-02-09T09:23:23.938Z,100.00
2023-02-09T09:28:29.386Z,100.00
2023-02-09T09:33:33.342Z,100.00
2023-02-09T09:38:38.656Z,100.00
2023-02-09T09:43:44.072Z,100.00
2023-02-09T09:48:51.905Z,100.00
2023-02-09T09:53:57.378Z,100.00
2023-02-09T09:59:02.891Z,100.00
2023-02-09T10:04:14.400Z,100.00
2023-02-09T10:09:30.042Z,100.00
2023-02-09T10:14:37.435Z,100.00
2023-02-09T10:19:41.450Z,100.00
2023-02-09T10:24:45.308Z,100.00
2023-02-09T10:29:50.431Z,100.00
2023-02-09T10:34:56.950Z,100.00
2023-02-09T10:40:08.928Z,100.00
2023-02-09T10:45:26.410Z,100.00
2023-02-09T10:50:30.428Z,100.00
2023-02-09T10:55:37.076Z,100.00
2023-02-09T11:00:50.144Z,100.00
2023-02-09T11:06:03.412Z,99.42
2023-02-09T11:11:12.128Z,97.06
2023-02-09T11:16:45.417Z,100.00
2023-02-09T11:22:01.753Z,96.99
2023-02-09T11:27:13.655Z,97.92
2023-02-09T11:32:21.674Z,96.31
2023-02-09T11:37:31.586Z,95.26
2023-02-09T11:42:47.013Z,91.29
2023-02-09T11:48:01.717Z,93.38
2023-02-09T11:53:13.157Z,94.17
2023-02-09T11:58:32.042Z,92.99
2023-02-09T12:03:37.190Z,91.02
2023-02-09T12:09:04.173Z,94.72
2023-02-09T12:14:19.376Z,89.10
2023-02-09T12:19:35.383Z,87.91
2023-02-09T12:24:41.424Z,90.64
2023-02-09T12:29:45.197Z,89.83
2023-02-09T12:34:52.386Z,89.36
2023-02-09T12:40:22.564Z,86.07
2023-02-09T12:45:36.842Z,88.26
2023-02-09T12:50:54.257Z,98.42
2023-02-09T12:56:24.092Z,100.00
2023-02-09T13:02:01.181Z,100.00
2023-02-09T13:07:13.862Z,100.00
2023-02-09T13:12:21.176Z,100.00
2023-02-09T13:17:36.190Z,100.00
2023-02-09T13:22:57.605Z,100.00
2023-02-09T13:28:10.674Z,100.00
2023-02-09T13:33:28.253Z,100.00
2023-02-09T13:38:35.937Z,100.00
2023-02-09T13:43:40.462Z,100.00
2023-02-09T13:48:44.256Z,100.00
2023-02-09T13:53:58.987Z,100.00
2023-02-09T13:59:03.020Z,100.00
2023-02-09T14:04:12.625Z,100.00
2023-02-09T14:09:21.878Z,100.00
2023-02-09T14:14:49.654Z,100.00
2023-02-09T14:19:54.337Z,100.00
2023-02-09T14:24:59.716Z,100.00
2023-02-09T14:30:03.530Z,100.00
2023-02-09T14:35:18.318Z,100.00
2023-02-09T14:40:29.920Z,100.00
2023-02-09T14:45:39.942Z,100.00
2023-02-09T14:50:43.728Z,100.00
2023-02-09T14:55:49.003Z,100.00
2023-02-09T15:00:54.311Z,100.00
2023-02-09T15:06:00.204Z,100.00
2023-02-09T15:11:28.157Z,100.00
2023-02-09T15:16:32.625Z,100.00
2023-02-09T15:21:36.409Z,100.00
2023-02-09T15:26:41.671Z,100.00
2023-02-09T15:31:45.523Z,100.00
2023-02-09T15:36:49.435Z,100.00
2023-02-09T15:42:12.196Z,100.00
2023-02-09T15:47:33.597Z,100.00
2023-02-09T15:52:37.360Z,100.00
2023-02-09T15:57:42.542Z,100.00
2023-02-09T16:02:47.826Z,100.00
2023-02-09T16:07:52.994Z,100.00
2023-02-09T16:12:58.439Z,100.00
2023-02-09T16:18:02.243Z,100.00
2023-02-09T16:23:19.890Z,100.00
2023-02-09T16:28:26.149Z,100.00
2023-02-09T16:33:29.981Z,100.00
2023-02-09T16:38:33.713Z,100.00
2023-02-09T16:43:38.762Z,100.00
2023-02-09T16:48:46.629Z,100.00
2023-02-09T16:53:52.451Z,100.00
2023-02-09T16:58:57.606Z,100.00
2023-02-09T17:04:03.264Z,100.00
2023-02-09T17:09:15.064Z,100.00
2023-02-09T17:14:20.166Z,100.00
2023-02-09T17:19:23.963Z,100.00
2023-02-09T17:24:27.693Z,100.00
2023-02-09T17:29:33.867Z,100.00
2023-02-09T17:34:37.671Z,100.00
2023-02-09T17:39:41.835Z,100.00
2023-02-09T17:44:47.074Z,100.00
2023-02-09T17:49:51.068Z,100.00
2023-02-09T17:54:54.855Z,100.00
2023-02-09T18:00:00.024Z,100.00
2023-02-09T18:05:03.989Z,100.00
2023-02-09T18:10:08.835Z,100.00
2023-02-09T18:15:22.460Z,100.00
2023-02-09T18:20:29.270Z,100.00
2023-02-09T18:25:35.795Z,100.00
2023-02-09T18:30:41.201Z,100.00
2023-02-09T18:35:46.441Z,100.00
2023-02-09T18:40:51.700Z,100.00
2023-02-09T18:45:56.941Z,100.00
2023-02-09T18:51:00.972Z,100.00
2023-02-09T18:56:05.433Z,100.00
2023-02-09T19:01:12.512Z,100.00
2023-02-09T19:06:16.414Z,100.00
2023-02-09T19:11:22.752Z,100.00
2023-02-09T19:16:28.091Z,100.00
2023-02-09T19:21:32.455Z,100.00
2023-02-09T19:26:36.310Z,100.00
2023-02-09T19:31:41.764Z,100.00
2023-02-09T19:36:45.788Z,100.00
2023-02-09T19:41:49.538Z,100.00
2023-02-09T19:46:54.720Z,100.00
2023-02-09T19:51:58.948Z,100.00
2023-02-09T19:57:04.515Z,100.00
2023-02-09T20:02:11.382Z,100.00
2023-02-09T20:07:15.648Z,100.00
2023-02-09T20:12:21.862Z,100.00
2023-02-09T20:17:28.082Z,100.00
2023-02-09T20:22:32.374Z,100.00
2023-02-09T20:27:36.251Z,100.00
2023-02-09T20:32:41.673Z,100.00
2023-02-09T20:37:45.458Z,100.00
2023-02-09T20:43:07.091Z,100.00
2023-02-09T20:48:12.226Z,100.00
2023-02-09T20:53:15.951Z,100.00
2023-02-09T20:58:20.173Z,100.00
2023-02-09T21:03:25.356Z,100.00
2023-02-09T21:08:29.181Z,100.00
2023-02-09T21:13:32.978Z,100.00
2023-02-09T21:18:38.738Z,100.00
2023-02-09T21:23:42.924Z,100.00
2023-02-09T21:28:48.489Z,100.00
2023-02-09T21:33:53.760Z,100.00
2023-02-09T21:38:57.474Z,100.00
2023-02-09T21:44:01.483Z,100.00
2023-02-09T21:49:07.149Z,100.00
2023-02-09T21:54:14.153Z,100.00
2023-02-09T21:59:18.070Z,100.00
2023-02-09T22:04:23.199Z,100.00
2023-02-09T22:09:27.049Z,100.00
2023-02-09T22:14:31.298Z,100.00
2023-02-09T22:19:36.678Z,100.00
2023-02-09T22:24:40.486Z,100.00
2023-02-09T22:29:45.799Z,100.00
2023-02-09T22:34:50.934Z,100.00
2023-02-09T22:39:54.666Z,100.00
2023-02-09T22:44:58.428Z,100.00
2023-02-09T22:50:03.550Z,100.00
2023-02-09T22:55:07.876Z,100.00
2023-02-09T23:00:14.204Z,100.00
2023-02-09T23:05:21.561Z,100.00
2023-02-09T23:10:25.336Z,100.00
2023-02-09T23:15:29.157Z,100.00
2023-02-09T23:20:34.406Z,100.00
2023-02-09T23:25:38.147Z,100.00
2023-02-09T23:30:41.846Z,100.00
2023-02-09T23:35:47.233Z,100.00
2023-02-09T23:40:51.146Z,100.00
2023-02-09T23:45:55.043Z,100.00
2023-02-09T23:51:01.281Z,100.00
2023-02-09T23:56:06.262Z,100.00
